createdAt,value
2019-03-29T00:03:07.268Z,17.23
2019-03-29T00:07:16.110Z,14.97
2019-03-29T00:11:24.581Z,18.10
2019-03-29T00:15:52.562Z,17.83
2019-03-29T00:20:01.084Z,16.87
2019-03-29T00:24:09.587Z,16.80
2019-03-29T00:28:18.114Z,15.80
2019-03-29T00:32:26.573Z,17.83
2019-03-29T00:36:35.043Z,17.13
2019-03-29T00:40:43.782Z,17.03
2019-03-29T00:44:52.906Z,17.73
2019-03-29T00:49:01.732Z,18.53
2019-03-29T00:53:10.190Z,18.07
2019-03-29T00:57:18.686Z,18.77
2019-03-29T01:01:27.252Z,18.43
2019-03-29T01:05:35.786Z,22.20
2019-03-29T01:09:44.292Z,21.63
2019-03-29T01:13:52.830Z,21.40
2019-03-29T01:18:01.595Z,21.07
2019-03-29T01:22:10.071Z,20.43
2019-03-29T01:26:18.771Z,21.57
2019-03-29T01:30:27.247Z,21.00
2019-03-29T01:34:36.094Z,19.20
2019-03-29T01:38:44.637Z,21.03
2019-03-29T01:42:53.106Z,22.70
2019-03-29T01:47:01.834Z,19.03
2019-03-29T01:51:10.349Z,19.70
2019-03-29T01:55:18.840Z,19.23
2019-03-29T01:59:27.386Z,19.63
2019-03-29T02:03:35.855Z,21.00
2019-03-29T02:07:44.343Z,20.63
2019-03-29T02:11:53.095Z,20.50
2019-03-29T02:16:01.673Z,19.80
2019-03-29T02:20:10.432Z,20.47
2019-03-29T02:24:18.914Z,19.70
2019-03-29T02:28:27.642Z,17.53
2019-03-29T02:32:36.114Z,18.23
2019-03-29T02:36:44.617Z,20.87
2019-03-29T02:40:53.060Z,19.60
2019-03-29T02:45:03.394Z,18.47
2019-03-29T02:49:12.741Z,18.23
2019-03-29T02:53:21.618Z,18.60
2019-03-29T02:57:30.102Z,18.67
2019-03-29T03:01:38.670Z,18.60
2019-03-29T03:05:47.215Z,19.90
2019-03-29T03:09:56.143Z,18.90
2019-03-29T03:14:05.075Z,18.80
2019-03-29T03:18:13.655Z,18.60
2019-03-29T03:22:22.165Z,20.47
2019-03-29T03:26:30.647Z,22.80
2019-03-29T03:30:39.109Z,19.90
2019-03-29T03:34:47.656Z,18.73
2019-03-29T03:38:56.137Z,19.67
2019-03-29T03:43:04.615Z,19.50
2019-03-29T03:47:13.404Z,20.47
2019-03-29T03:51:22.041Z,19.53
2019-03-29T03:55:32.220Z,20.40
2019-03-29T03:59:41.633Z,19.97
2019-03-29T04:03:50.078Z,21.77
2019-03-29T04:07:58.559Z,19.77
2019-03-29T04:12:07.003Z,19.80
2019-03-29T04:16:15.485Z,19.40
2019-03-29T04:20:23.972Z,19.87
2019-03-29T04:24:32.440Z,20.43
2019-03-29T04:28:41.140Z,19.77
2019-03-29T04:32:49.619Z,18.23
2019-03-29T04:36:58.381Z,17.93
2019-03-29T04:41:06.886Z,20.80
2019-03-29T04:45:15.776Z,19.67
2019-03-29T04:49:24.321Z,20.97
2019-03-29T04:53:32.784Z,20.80
2019-03-29T04:57:41.270Z,18.32
2019-03-29T05:01:49.732Z,21.10
2019-03-29T05:05:58.237Z,19.10
2019-03-29T05:10:20.521Z,20.97
2019-03-29T05:14:18.324Z,18.90
2019-03-29T05:18:27.104Z,19.63
2019-03-29T05:22:35.694Z,20.47
2019-03-29T05:26:44.239Z,18.87
2019-03-29T05:30:52.980Z,18.17
2019-03-29T05:35:01.770Z,20.27
2019-03-29T05:39:10.308Z,21.97
2019-03-29T05:43:18.903Z,19.93
2019-03-29T05:47:46.785Z,18.23
2019-03-29T05:51:55.311Z,19.23
2019-03-29T05:56:04.152Z,19.87
2019-03-29T06:00:14.740Z,19.00
2019-03-29T06:04:23.415Z,18.23
2019-03-29T06:08:32.218Z,19.70
2019-03-29T06:12:40.683Z,22.10
2019-03-29T06:16:49.427Z,20.73
2019-03-29T06:20:58.010Z,20.77
2019-03-29T06:25:08.189Z,21.43
2019-03-29T06:29:16.803Z,20.90
2019-03-29T06:33:25.256Z,21.27
2019-03-29T06:37:35.661Z,21.17
2019-03-29T06:41:44.197Z,23.80
2019-03-29T06:45:52.721Z,20.90
2019-03-29T06:50:01.253Z,23.77
2019-03-29T06:54:09.859Z,23.63
2019-03-29T06:58:19.230Z,22.60
2019-03-29T07:02:27.697Z,25.03
2019-03-29T07:06:36.224Z,25.80
2019-03-29T07:10:44.802Z,24.70
2019-03-29T07:14:53.282Z,28.40
2019-03-29T07:19:04.989Z,26.70
2019-03-29T07:23:15.546Z,26.90
2019-03-29T07:27:24.089Z,25.80
2019-03-29T07:31:32.682Z,24.73
2019-03-29T07:35:41.160Z,25.93
2019-03-29T07:39:49.661Z,26.90
2019-03-29T07:43:58.151Z,24.43
2019-03-29T07:48:06.666Z,21.80
2019-03-29T07:52:15.200Z,18.97
2019-03-29T07:56:23.752Z,20.83
2019-03-29T08:00:32.251Z,22.00
2019-03-29T08:04:40.854Z,21.80
2019-03-29T08:08:49.360Z,19.50
2019-03-29T08:12:57.862Z,20.20
2019-03-29T08:17:06.412Z,18.57
2019-03-29T08:21:14.861Z,21.33
2019-03-29T08:25:23.336Z,20.03
2019-03-29T08:29:31.858Z,17.03
2019-03-29T08:33:40.522Z,17.93
2019-03-29T08:37:49.047Z,16.80
2019-03-29T08:42:00.315Z,18.60
2019-03-29T08:46:07.748Z,17.60
2019-03-29T08:50:16.483Z,17.40
2019-03-29T08:54:24.951Z,15.40
2019-03-29T08:58:33.687Z,15.43
2019-03-29T09:02:42.181Z,15.73
2019-03-29T09:06:53.712Z,14.80
2019-03-29T09:11:01.526Z,15.90
2019-03-29T09:15:10.345Z,15.87
2019-03-29T09:19:19.301Z,15.20
2019-03-29T09:23:30.103Z,15.90
2019-03-29T09:27:38.330Z,16.33
2019-03-29T09:31:47.088Z,15.47
2019-03-29T09:35:55.543Z,15.53
2019-03-29T09:40:05.536Z,14.27
2019-03-29T09:44:14.354Z,14.10
2019-03-29T09:48:23.123Z,16.07
2019-03-29T09:52:31.625Z,14.10
2019-03-29T09:56:40.228Z,15.43
2019-03-29T10:00:49.253Z,15.30
2019-03-29T10:04:57.773Z,12.60
2019-03-29T10:09:06.669Z,14.70
2019-03-29T10:13:15.156Z,15.03
2019-03-29T10:17:23.636Z,12.97
2019-03-29T10:21:34.084Z,12.23
2019-03-29T10:25:42.351Z,14.67
2019-03-29T10:29:50.823Z,12.93
2019-03-29T10:33:59.424Z,12.83
2019-03-29T10:38:07.935Z,12.03
2019-03-29T10:42:16.774Z,11.80
2019-03-29T10:46:25.739Z,11.77
2019-03-29T10:50:34.285Z,11.10
2019-03-29T10:54:42.814Z,12.47
2019-03-29T10:58:51.709Z,11.07
2019-03-29T11:03:00.550Z,10.30
2019-03-29T11:07:09.018Z,9.73
2019-03-29T11:11:17.505Z,9.50
2019-03-29T11:15:45.344Z,11.13
2019-03-29T11:19:53.801Z,10.90
2019-03-29T11:24:02.338Z,10.07
2019-03-29T11:28:10.884Z,10.93
2019-03-29T11:32:19.417Z,10.13
2019-03-29T11:36:27.979Z,10.67
2019-03-29T11:40:36.541Z,9.00
2019-03-29T11:44:45.061Z,8.80
2019-03-29T11:48:53.604Z,8.10
2019-03-29T11:53:02.063Z,8.10
2019-03-29T11:57:10.553Z,8.00
2019-03-29T12:01:19.059Z,8.13
2019-03-29T12:05:27.514Z,7.10
2019-03-29T12:09:35.994Z,7.17
2019-03-29T12:13:44.591Z,7.30
2019-03-29T12:17:53.067Z,7.37
2019-03-29T12:22:01.563Z,7.60
2019-03-29T12:26:10.026Z,7.13
2019-03-29T12:30:31.309Z,8.67
2019-03-29T12:34:29.041Z,7.83
2019-03-29T12:38:37.515Z,7.30
2019-03-29T12:42:46.019Z,7.57
2019-03-29T12:46:54.849Z,8.43
2019-03-29T12:51:03.383Z,8.00
2019-03-29T12:55:11.912Z,8.03
2019-03-29T12:59:20.425Z,8.07
2019-03-29T13:03:28.975Z,8.50
2019-03-29T13:07:37.452Z,7.50
2019-03-29T13:11:45.906Z,9.27
2019-03-29T13:15:54.394Z,7.40
2019-03-29T13:20:02.907Z,8.00
2019-03-29T13:24:11.396Z,7.60
2019-03-29T13:28:20.352Z,7.87
2019-03-29T13:32:28.812Z,8.47
2019-03-29T13:36:37.274Z,8.23
2019-03-29T13:40:45.834Z,8.17
2019-03-29T13:44:54.423Z,7.90
2019-03-29T13:49:03.059Z,7.33
2019-03-29T13:53:11.583Z,7.67
2019-03-29T13:57:20.150Z,7.67
2019-03-29T14:01:28.607Z,7.37
2019-03-29T14:05:37.360Z,7.73
2019-03-29T14:09:45.920Z,7.00
2019-03-29T14:13:54.720Z,7.37
2019-03-29T14:18:03.184Z,6.70
2019-03-29T14:22:11.726Z,6.73
2019-03-29T14:26:20.205Z,6.80
2019-03-29T14:30:28.683Z,6.63
2019-03-29T14:34:37.536Z,6.73
2019-03-29T14:38:52.314Z,6.57
2019-03-29T14:43:00.872Z,7.10
2019-03-29T14:47:09.421Z,6.50
2019-03-29T14:51:18.238Z,7.40
2019-03-29T14:55:27.155Z,6.60
2019-03-29T14:59:35.710Z,6.20
2019-03-29T15:03:44.216Z,6.97
2019-03-29T15:07:52.790Z,7.40
2019-03-29T15:12:01.238Z,6.77
2019-03-29T15:16:09.719Z,6.30
2019-03-29T15:20:18.190Z,6.60
2019-03-29T15:24:26.693Z,7.10
2019-03-29T15:28:37.483Z,6.70
2019-03-29T15:32:45.851Z,7.00
2019-03-29T15:36:54.395Z,5.70
2019-03-29T15:41:03.141Z,5.73
2019-03-29T15:45:20.395Z,5.57
2019-03-29T15:49:22.741Z,5.80
2019-03-29T15:53:31.223Z,6.00
2019-03-29T15:57:39.782Z,5.87
2019-03-29T16:01:48.593Z,5.23
2019-03-29T16:05:57.148Z,5.20
2019-03-29T16:10:06.167Z,5.70
2019-03-29T16:14:14.650Z,5.77
2019-03-29T16:18:23.139Z,5.13
2019-03-29T16:22:31.582Z,5.20
2019-03-29T16:26:40.091Z,4.77
2019-03-29T16:30:48.634Z,5.37
2019-03-29T16:34:57.125Z,5.27
2019-03-29T16:39:07.625Z,4.63
2019-03-29T16:43:16.421Z,4.67
2019-03-29T16:47:24.972Z,5.10
2019-03-29T16:51:33.461Z,4.10
2019-03-29T16:55:42.110Z,5.23
2019-03-29T16:59:50.705Z,4.93
2019-03-29T17:03:59.142Z,5.40
2019-03-29T17:08:07.661Z,4.10
2019-03-29T17:12:16.211Z,5.20
2019-03-29T17:16:30.558Z,4.30
2019-03-29T17:20:34.850Z,4.47
2019-03-29T17:24:56.483Z,4.67
2019-03-29T17:28:53.828Z,4.87
2019-03-29T17:33:02.352Z,5.40
2019-03-29T17:37:10.900Z,6.50
2019-03-29T17:41:19.627Z,7.10
2019-03-29T17:45:28.147Z,6.40
2019-03-29T17:49:36.707Z,8.40
2019-03-29T17:53:45.194Z,8.40
2019-03-29T17:57:53.674Z,10.73
2019-03-29T18:02:09.360Z,9.80
2019-03-29T18:06:12.398Z,9.40
2019-03-29T18:10:20.951Z,8.37
2019-03-29T18:14:29.414Z,9.27
2019-03-29T18:18:37.891Z,9.57
2019-03-29T18:22:46.434Z,8.67
2019-03-29T18:26:54.934Z,9.60
2019-03-29T18:31:03.429Z,9.63
2019-03-29T18:35:31.341Z,10.40
2019-03-29T18:39:40.006Z,8.85
2019-03-29T18:43:48.787Z,9.47
2019-03-29T18:47:57.269Z,11.20
2019-03-29T18:52:05.745Z,10.37
2019-03-29T18:56:14.624Z,9.57
2019-03-29T19:00:31.343Z,12.80
2019-03-29T19:04:39.827Z,12.70
2019-03-29T19:08:48.651Z,12.27
2019-03-29T19:12:57.514Z,16.77
2019-03-29T19:17:06.069Z,15.43
2019-03-29T19:21:14.573Z,19.80
2019-03-29T19:25:23.110Z,15.90
2019-03-29T19:29:32.045Z,15.03
2019-03-29T19:33:40.835Z,17.80
2019-03-29T19:37:49.377Z,15.67
2019-03-29T19:41:58.624Z,12.60
2019-03-29T19:46:07.082Z,13.03
2019-03-29T19:50:17.324Z,13.67
2019-03-29T19:54:25.860Z,13.32
2019-03-29T19:58:34.361Z,15.93
2019-03-29T20:02:43.314Z,16.13
2019-03-29T20:06:51.863Z,15.20
2019-03-29T20:11:00.779Z,14.83
2019-03-29T20:15:09.415Z,15.70
2019-03-29T20:19:20.047Z,15.72
2019-03-29T20:23:28.365Z,16.60
2019-03-29T20:27:36.857Z,15.70
2019-03-29T20:31:45.311Z,16.83
2019-03-29T20:35:53.828Z,17.87
2019-03-29T20:40:02.289Z,15.90
2019-03-29T20:44:11.081Z,17.97
2019-03-29T20:48:19.639Z,16.63
2019-03-29T20:52:28.149Z,17.53
2019-03-29T20:56:36.738Z,19.40
2019-03-29T21:00:45.288Z,17.97
2019-03-29T21:05:13.385Z,17.67
2019-03-29T21:09:21.901Z,18.00
2019-03-29T21:13:30.410Z,19.10
2019-03-29T21:17:39.151Z,15.90
2019-03-29T21:21:47.676Z,16.07
2019-03-29T21:25:56.453Z,15.20
2019-03-29T21:30:07.672Z,16.97
2019-03-29T21:34:16.589Z,16.90
2019-03-29T21:38:25.330Z,16.20
2019-03-29T21:42:33.821Z,14.70
2019-03-29T21:46:42.738Z,16.70
2019-03-29T21:50:51.633Z,14.10
2019-03-29T21:55:00.104Z,14.07
2019-03-29T21:59:08.722Z,14.00
2019-03-29T22:03:17.196Z,13.37
2019-03-29T22:07:25.682Z,12.77
2019-03-29T22:11:34.132Z,12.00
2019-03-29T22:15:42.621Z,14.50
2019-03-29T22:19:51.102Z,12.10
2019-03-29T22:23:59.604Z,13.00
2019-03-29T22:28:08.087Z,13.77
2019-03-29T22:32:16.655Z,13.67
2019-03-29T22:36:25.183Z,13.80
2019-03-29T22:40:33.693Z,13.70
2019-03-29T22:44:42.273Z,13.33
2019-03-29T22:48:52.525Z,12.60
2019-03-29T22:53:01.053Z,13.47
2019-03-29T22:57:09.541Z,12.23
2019-03-29T23:01:18.166Z,14.77
2019-03-29T23:05:26.657Z,13.50
2019-03-29T23:09:35.147Z,13.33
2019-03-29T23:13:43.639Z,12.50
2019-03-29T23:17:52.195Z,13.80
2019-03-29T23:22:00.705Z,12.83
2019-03-29T23:26:09.162Z,12.80
2019-03-29T23:30:18.852Z,14.57
2019-03-29T23:34:27.342Z,13.27
2019-03-29T23:38:35.943Z,12.37
2019-03-29T23:42:44.883Z,11.10
2019-03-29T23:46:53.756Z,12.60
2019-03-29T23:51:02.239Z,11.70
2019-03-29T23:55:11.035Z,13.20
2019-03-29T23:59:19.582Z,12.30
